Time;durP1;ratioP1;P1;durP2;ratioP2;P2;SDS_P1;SDS_P2;PMS_P1;PMS_P2;Temp;Humidity;BMP_temperature;BMP_pressure;BME280_temperature;BME280_humidity;BME280_pressure;Samples;Min_cycle;Max_cycle;Signal;HPM_P1;HPM_P2
2022/04/05 00:06:58;;;;;;;1.67;0.43;;;;;;;;;;20171077;29;20056;-87
2022/04/05 00:17:01;;;;;;;0.35;0.20;;;;;;;;;;20151774;29;20498;-85
2022/04/05 00:27:02;;;;;;;0.82;0.30;;;;;;;;;;20153033;29;20041;-86
2022/04/05 00:37:05;;;;;;;0.85;0.30;;;;;;;;;;20153462;29;20045;-87
2022/04/05 00:47:23;;;;;;;0.65;0.30;;;;;;;;;;20148823;29;20057;-88
2022/04/05 00:57:27;;;;;;;1.48;0.32;;;;;;;;;;20164711;29;20060;-87
2022/04/05 01:07:30;;;;;;;0.77;0.30;;;;;;;;;;20148500;29;20055;-87
2022/04/05 01:17:33;;;;;;;0.30;0.20;;;;;;;;;;20181610;29;20078;-87
2022/04/05 01:27:35;;;;;;;0.68;0.30;;;;;;;;;;20165946;29;20198;-88
2022/04/05 01:37:37;;;;;;;0.77;0.35;;;;;;;;;;20721648;23;20507;-80
2022/04/05 01:47:39;;;;;;;0.50;0.30;;;;;;;;;;20298520;29;20133;-79
2022/04/05 01:57:40;;;;;;;0.20;0.20;;;;;;;;;;20306813;29;20077;-80
2022/04/05 02:07:42;;;;;;;1.35;0.40;;;;;;;;;;20284759;29;20056;-79
2022/04/05 02:17:44;;;;;;;0.32;0.17;;;;;;;;;;20302225;29;20056;-80
2022/04/05 02:27:51;;;;;;;0.68;0.20;;;;;;;;;;20309237;29;20514;-79
2022/04/05 02:38:01;;;;;;;0.70;0.30;;;;;;;;;;20289078;29;20060;-80
2022/04/05 02:48:06;;;;;;;0.77;0.20;;;;;;;;;;20299716;29;20123;-79
2022/04/05 02:58:08;;;;;;;0.45;0.30;;;;;;;;;;20220244;29;20045;-79
2022/04/05 03:08:11;;;;;;;0.25;0.20;;;;;;;;;;20199195;29;20045;-79
2022/04/05 03:18:14;;;;;;;1.00;0.22;;;;;;;;;;20313742;29;20048;-80
2022/04/05 03:28:18;;;;;;;0.40;0.40;;;;;;;;;;20295174;29;20098;-79
2022/04/05 03:38:21;;;;;;;0.43;0.20;;;;;;;;;;20286280;29;20085;-79
2022/04/05 03:48:26;;;;;;;0.20;0.20;;;;;;;;;;20311167;29;20056;-79
2022/04/05 03:58:31;;;;;;;0.70;0.22;;;;;;;;;;20256891;29;20462;-79
2022/04/05 04:08:33;;;;;;;0.45;0.20;;;;;;;;;;20283696;29;20060;-79
2022/04/05 04:18:35;;;;;;;1.42;0.25;;;;;;;;;;20287859;29;20063;-80
2022/04/05 04:28:37;;;;;;;0.32;0.30;;;;;;;;;;20281330;29;20119;-79
2022/04/05 04:38:39;;;;;;;1.75;1.17;;;;;;;;;;20286014;29;20494;-80
2022/04/05 04:48:41;;;;;;;0.95;0.30;;;;;;;;;;20296418;29;20131;-80
2022/04/05 04:58:44;;;;;;;0.55;0.20;;;;;;;;;;20289472;29;20044;-78
2022/04/05 05:08:46;;;;;;;0.50;0.22;;;;;;;;;;20300510;29;20139;-78
2022/04/05 05:18:47;;;;;;;0.20;0.20;;;;;;;;;;20271170;29;20045;-78
2022/04/05 05:28:49;;;;;;;0.30;0.20;;;;;;;;;;20312604;29;20061;-78
2022/04/05 05:38:51;;;;;;;0.10;0.10;;;;;;;;;;20276842;29;20435;-79
2022/04/05 05:48:52;;;;;;;0.57;0.30;;;;;;;;;;20286353;29;20049;-79
2022/04/05 05:58:54;;;;;;;0.35;0.20;;;;;;;;;;20276233;29;20060;-79
2022/04/05 06:08:56;;;;;;;0.35;0.28;;;;;;;;;;20293616;29;20056;-78
2022/04/05 06:18:57;;;;;;;0.75;0.20;;;;;;;;;;20278301;29;20053;-80
2022/04/05 06:28:59;;;;;;;0.65;0.22;;;;;;;;;;20260944;29;20056;-80
2022/04/05 06:39:01;;;;;;;0.73;0.20;;;;;;;;;;20277415;29;20398;-81
2022/04/05 06:49:03;;;;;;;0.22;0.20;;;;;;;;;;20259740;29;20057;-78
2022/04/05 06:59:05;;;;;;;0.55;0.20;;;;;;;;;;20275750;29;20060;-80
2022/04/05 07:09:07;;;;;;;0.30;0.15;;;;;;;;;;20288597;29;20053;-81
2022/04/05 07:19:09;;;;;;;0.50;0.30;;;;;;;;;;20288366;29;20116;-83
2022/04/05 07:29:11;;;;;;;1.45;0.20;;;;;;;;;;20297622;29;20063;-83
2022/04/05 07:39:13;;;;;;;0.45;0.10;;;;;;;;;;20349081;29;20143;-82
2022/04/05 07:49:14;;;;;;;0.35;0.20;;;;;;;;;;20317326;29;20164;-83
2022/04/05 07:59:16;;;;;;;0.45;0.20;;;;;;;;;;20270807;29;20053;-82
2022/04/05 08:09:18;;;;;;;0.68;0.20;;;;;;;;;;20314505;29;20518;-82
2022/04/05 08:19:20;;;;;;;0.38;0.20;;;;;;;;;;20543147;23;20083;-83
2022/04/05 08:29:23;;;;;;;0.75;0.30;;;;;;;;;;20332235;29;20071;-83
2022/04/05 08:39:28;;;;;;;1.17;0.40;;;;;;;;;;20329908;29;20381;-83
2022/04/05 08:49:30;;;;;;;0.55;0.20;;;;;;;;;;20313801;29;20052;-82
2022/04/05 08:59:32;;;;;;;0.65;0.20;;;;;;;;;;20328054;29;20047;-83
2022/04/05 09:09:34;;;;;;;0.30;0.20;;;;;;;;;;20327223;29;20052;-83
2022/04/05 09:19:37;;;;;;;0.73;0.20;;;;;;;;;;20303065;29;20071;-83
2022/04/05 09:29:43;;;;;;;0.20;0.20;;;;;;;;;;20264188;29;20052;-84
2022/04/05 09:39:45;;;;;;;;;;;;;;;;;;20248265;29;20414;-84
2022/04/05 09:49:48;;;;;;;1.10;0.20;;;;;;;;;;20278642;29;19923;-84
2022/04/05 09:59:49;;;;;;;0.40;0.20;;;;;;;;;;20263770;29;20080;-84
2022/04/05 10:09:51;;;;;;;0.20;0.20;;;;;;;;;;20278062;29;20059;-83
2022/04/05 10:19:56;;;;;;;0.20;0.20;;;;;;;;;;20263293;29;20115;-84
2022/04/05 10:30:03;;;;;;;0.68;0.20;;;;;;;;;;20280838;29;20104;-84
2022/04/05 10:40:10;;;;;;;0.73;0.20;;;;;;;;;;20267125;29;20587;-88
2022/04/05 10:50:17;;;;;;;0.28;0.20;;;;;;;;;;20315841;29;20051;-80
2022/04/05 11:00:19;;;;;;;0.25;0.15;;;;;;;;;;20336612;29;20051;-80
2022/04/05 11:10:36;;;;;;;0.20;0.20;;;;;;;;;;20336358;29;20060;-80
2022/04/05 11:20:39;;;;;;;0.40;0.15;;;;;;;;;;20351158;29;20055;-85
2022/04/05 11:30:47;;;;;;;0.20;0.20;;;;;;;;;;20312000;29;20082;-82
2022/04/05 11:40:50;;;;;;;0.52;0.20;;;;;;;;;;20346058;29;20040;-81
2022/04/05 11:50:52;;;;;;;0.57;0.38;;;;;;;;;;20317469;29;20044;-80
2022/04/05 12:00:54;;;;;;;0.50;0.40;;;;;;;;;;20332279;29;20052;-80
2022/04/05 12:10:57;;;;;;;1.10;0.40;;;;;;;;;;20316157;29;20056;-80
2022/04/05 12:20:59;;;;;;;1.98;0.45;;;;;;;;;;20347797;29;20126;-81
2022/04/05 12:31:11;;;;;;;1.08;0.60;;;;;;;;;;20314452;29;20056;-80
2022/04/05 12:41:14;;;;;;;0.70;0.40;;;;;;;;;;20329179;29;20045;-80
2022/04/05 12:51:29;;;;;;;0.57;0.30;;;;;;;;;;20328411;29;20516;-81
2022/04/05 13:01:31;;;;;;;2.10;0.40;;;;;;;;;;20344194;29;20056;-80
2022/04/05 13:11:33;;;;;;;0.88;0.40;;;;;;;;;;20327449;29;20087;-80
2022/04/05 13:21:50;;;;;;;1.00;0.43;;;;;;;;;;20343499;29;20059;-80
2022/04/05 13:31:56;;;;;;;0.90;0.20;;;;;;;;;;20344385;29;20056;-81
2022/04/05 13:41:58;;;;;;;0.70;0.50;;;;;;;;;;20325546;29;20076;-80
2022/04/05 13:52:01;;;;;;;1.10;0.40;;;;;;;;;;20325325;29;20454;-80
2022/04/05 14:02:25;;;;;;;1.23;0.40;;;;;;;;;;20324979;29;20143;-81
2022/04/05 14:12:27;;;;;;;1.52;0.45;;;;;;;;;;20321550;29;20086;-82
2022/04/05 14:22:30;;;;;;;4.93;0.70;;;;;;;;;;20284181;29;20583;-80
2022/04/05 14:32:32;;;;;;;4.05;0.95;;;;;;;;;;20278005;29;20411;-85
2022/04/05 14:42:34;;;;;;;3.13;0.90;;;;;;;;;;20260353;29;20052;-80
2022/04/05 14:52:56;;;;;;;2.58;0.65;;;;;;;;;;20277559;29;20052;-80
2022/04/05 15:02:57;;;;;;;3.25;0.77;;;;;;;;;;20259235;29;20392;-80
2022/04/05 15:12:59;;;;;;;1.40;0.70;;;;;;;;;;20257899;29;20108;-80
2022/04/05 15:23:01;;;;;;;1.70;0.65;;;;;;;;;;20274213;29;20088;-80
2022/04/05 15:33:03;;;;;;;1.17;0.65;;;;;;;;;;20272905;29;20080;-80
2022/04/05 15:43:05;;;;;;;2.63;0.52;;;;;;;;;;20286775;29;20124;-80
2022/04/05 15:53:07;;;;;;;1.63;0.68;;;;;;;;;;20271790;29;20091;-80
2022/04/05 16:03:09;;;;;;;0.65;0.60;;;;;;;;;;20271039;29;20420;-80
2022/04/05 16:13:12;;;;;;;2.05;0.60;;;;;;;;;;20269480;29;20206;-80
2022/04/05 16:23:15;;;;;;;2.90;0.65;;;;;;;;;;20252720;29;20057;-80
2022/04/05 16:33:16;;;;;;;0.90;0.50;;;;;;;;;;20268931;29;20060;-80
2022/04/05 16:43:18;;;;;;;1.83;0.60;;;;;;;;;;20267084;29;20053;-80
2022/04/05 16:53:20;;;;;;;1.65;0.60;;;;;;;;;;20250564;29;20480;-80
2022/04/05 17:03:22;;;;;;;1.10;0.60;;;;;;;;;;20266661;29;20049;-80
2022/04/05 17:13:24;;;;;;;0.88;0.60;;;;;;;;;;20267050;29;20052;-80
2022/04/05 17:23:27;;;;;;;0.70;0.50;;;;;;;;;;20265207;29;20103;-80
2022/04/05 17:33:48;;;;;;;1.05;0.40;;;;;;;;;;20265169;29;20048;-81
2022/04/05 17:43:50;;;;;;;1.95;0.60;;;;;;;;;;20264440;29;20045;-81
2022/04/05 17:53:52;;;;;;;1.20;0.45;;;;;;;;;;20289517;29;20058;-82
2022/04/05 18:03:54;;;;;;;1.25;0.80;;;;;;;;;;20294219;29;20502;-82
2022/04/05 18:13:57;;;;;;;0.60;0.50;;;;;;;;;;20293494;29;20064;-82
2022/04/05 18:24:00;;;;;;;1.50;0.50;;;;;;;;;;20278777;29;20079;-82
2022/04/05 18:34:02;;;;;;;0.85;0.40;;;;;;;;;;20320559;29;20121;-81
2022/04/05 18:44:06;;;;;;;1.20;0.80;;;;;;;;;;20262377;29;20045;-82
2022/04/05 18:54:08;;;;;;;0.52;0.47;;;;;;;;;;20301227;29;20056;-81
2022/04/05 19:04:10;;;;;;;1.90;0.75;;;;;;;;;;20308552;29;20048;-80
2022/04/05 19:14:11;;;;;;;1.55;0.50;;;;;;;;;;20286801;28;20083;-80
2022/04/05 19:24:13;;;;;;;1.70;0.50;;;;;;;;;;20322021;29;20063;-82
2022/04/05 19:34:15;;;;;;;0.40;0.40;;;;;;;;;;20283359;29;20459;-81
2022/04/05 19:44:17;;;;;;;1.55;0.60;;;;;;;;;;20322655;29;20066;-81
2022/04/05 19:54:19;;;;;;;1.45;0.60;;;;;;;;;;20288575;29;20439;-81
2022/04/05 20:04:23;;;;;;;1.13;0.50;;;;;;;;;;20325336;29;20495;-83
2022/04/05 20:14:28;;;;;;;0.65;0.52;;;;;;;;;;20317910;29;20057;-82
2022/04/05 20:24:30;;;;;;;2.00;0.70;;;;;;;;;;20305494;29;20049;-83
2022/04/05 20:34:32;;;;;;;1.70;0.85;;;;;;;;;;20294741;29;20054;-82
2022/04/05 20:44:36;;;;;;;1.40;0.70;;;;;;;;;;20302024;29;20400;-80
2022/04/05 20:54:38;;;;;;;1.05;0.60;;;;;;;;;;20303549;29;20051;-81
2022/04/05 21:04:39;;;;;;;1.15;0.70;;;;;;;;;;20297930;29;20071;-81
2022/04/05 21:14:41;;;;;;;1.60;0.60;;;;;;;;;;20253876;29;20055;-82
2022/04/05 21:24:43;;;;;;;1.25;0.70;;;;;;;;;;20300944;29;20048;-81
2022/04/05 21:34:45;;;;;;;1.15;0.40;;;;;;;;;;20293969;29;20044;-81
2022/04/05 21:44:47;;;;;;;1.35;0.70;;;;;;;;;;20294582;29;20168;-81
2022/04/05 21:54:48;;;;;;;1.38;0.82;;;;;;;;;;20329336;29;20566;-81
2022/04/05 22:04:50;;;;;;;1.77;0.60;;;;;;;;;;20302351;29;20530;-81
2022/04/05 22:14:52;;;;;;;1.80;0.77;;;;;;;;;;20283805;29;20136;-81
2022/04/05 22:24:54;;;;;;;1.15;0.60;;;;;;;;;;20290642;29;20041;-82
2022/04/05 22:34:55;;;;;;;1.30;0.70;;;;;;;;;;20270401;29;20040;-82
2022/04/05 22:44:57;;;;;;;0.70;0.60;;;;;;;;;;20303061;29;20071;-81
2022/04/05 22:54:59;;;;;;;1.15;0.65;;;;;;;;;;20300492;29;20055;-83
2022/04/05 23:05:00;;;;;;;2.05;0.80;;;;;;;;;;20307606;29;20037;-82
2022/04/05 23:15:03;;;;;;;1.50;0.95;;;;;;;;;;20288404;29;20044;-81
2022/04/05 23:25:05;;;;;;;1.60;0.70;;;;;;;;;;20315588;29;20495;-81
2022/04/05 23:35:08;;;;;;;0.82;0.65;;;;;;;;;;20283368;29;20078;-81
2022/04/05 23:45:10;;;;;;;1.50;0.75;;;;;;;;;;20284226;29;20101;-81
2022/04/05 23:55:12;;;;;;;2.38;0.70;;;;;;;;;;20308054;29;20067;-81
